Time;durP1;ratioP1;P1;durP2;ratioP2;P2;SDS_P1;SDS_P2;PMS_P1;PMS_P2;Temp;Humidity;BMP_temperature;BMP_pressure;BME280_temperature;BME280_humidity;BME280_pressure;Samples;Min_cycle;Max_cycle;Signal;HPM_P1;HPM_P2
2023/04/04 00:00:19;;;;;;;;;;;2.90;99.90;;;;;;5049976;28;19982;-37
2023/04/04 00:02:46;;;;;;;;;;;2.90;99.90;;;;;;5051011;28;20320;-37
2023/04/04 00:05:13;;;;;;;;;;;2.80;99.90;;;;;;5032730;28;19925;-37
2023/04/04 00:07:39;;;;;;;;;;;2.80;99.90;;;;;;5049493;28;19929;-36
2023/04/04 00:10:08;;;;;;;;;;;2.90;99.90;;;;;;5049355;28;19928;-35
2023/04/04 00:12:36;;;;;;;;;;;2.80;99.90;;;;;;5048957;28;19925;-36
2023/04/04 00:15:02;;;;;;;;;;;2.80;99.90;;;;;;5033544;28;19924;-36
2023/04/04 00:17:29;;;;;;;;;;;2.70;99.90;;;;;;5034589;28;19925;-37
2023/04/04 00:19:56;;;;;;;;;;;2.70;99.90;;;;;;5031435;28;19972;-36
2023/04/04 00:22:23;;;;;;;;;;;2.70;99.90;;;;;;5049531;28;19991;-37
2023/04/04 00:24:50;;;;;;;;;;;2.70;99.90;;;;;;5035789;28;20454;-36
2023/04/04 00:27:18;;;;;;;;;;;2.60;99.90;;;;;;5050036;28;19924;-37
2023/04/04 00:29:45;;;;;;;;;;;2.60;99.90;;;;;;5048096;28;19978;-37
2023/04/04 00:32:12;;;;;;;;;;;2.60;99.90;;;;;;5032837;28;19932;-37
2023/04/04 00:34:38;;;;;;;;;;;2.60;99.90;;;;;;5050762;28;20160;-37
2023/04/04 00:37:06;;;;;;;;;;;2.50;99.90;;;;;;5033211;28;19925;-38
2023/04/04 00:39:33;;;;;;;;;;;2.50;99.90;;;;;;5033173;28;19986;-36
2023/04/04 00:41:59;;;;;;;;;;;2.50;99.90;;;;;;5034119;28;19925;-36
2023/04/04 00:44:29;;;;;;;;;;;2.60;99.90;;;;;;5032616;28;20378;-37
2023/04/04 00:46:56;;;;;;;;;;;2.50;99.90;;;;;;5050200;28;20357;-37
2023/04/04 00:49:22;;;;;;;;;;;2.40;99.90;;;;;;5050125;28;20346;-36
2023/04/04 00:51:49;;;;;;;;;;;2.40;99.90;;;;;;5049685;28;19970;-36
2023/04/04 00:54:16;;;;;;;;;;;2.40;99.90;;;;;;5051205;28;19959;-36
2023/04/04 00:56:42;;;;;;;;;;;2.40;99.90;;;;;;5033841;28;19975;-36
2023/04/04 00:59:09;;;;;;;;;;;2.40;99.90;;;;;;5031385;28;19924;-36
2023/04/04 01:01:37;;;;;;;;;;;2.40;99.90;;;;;;5032271;28;20364;-36
2023/04/04 01:04:04;;;;;;;;;;;2.40;99.90;;;;;;5031700;28;19975;-36
2023/04/04 01:06:31;;;;;;;;;;;2.30;99.90;;;;;;5050906;28;20023;-36
2023/04/04 01:08:58;;;;;;;;;;;2.30;99.90;;;;;;5049480;28;19979;-36
2023/04/04 01:11:25;;;;;;;;;;;2.30;99.90;;;;;;5050313;28;19933;-36
2023/04/04 01:13:52;;;;;;;;;;;2.20;99.90;;;;;;5051340;28;19925;-36
2023/04/04 01:16:18;;;;;;;;;;;2.20;99.90;;;;;;5047331;28;19928;-36
2023/04/04 01:18:46;;;;;;;;;;;2.20;99.90;;;;;;5035926;28;19937;-37
2023/04/04 01:21:13;;;;;;;;;;;2.20;99.90;;;;;;5054142;28;19925;-37
2023/04/04 01:23:43;;;;;;;;;;;2.20;99.90;;;;;;5036232;28;19979;-36
2023/04/04 01:26:11;;;;;;;;;;;2.10;99.90;;;;;;5054633;28;19925;-36
2023/04/04 01:28:38;;;;;;;;;;;2.20;99.90;;;;;;5036589;28;19991;-35
2023/04/04 01:31:05;;;;;;;;;;;2.10;99.90;;;;;;5053035;28;19994;-36
2023/04/04 01:33:34;;;;;;;;;;;2.10;99.90;;;;;;5054823;28;20312;-36
2023/04/04 01:36:02;;;;;;;;;;;2.10;99.90;;;;;;5053983;28;19925;-36
2023/04/04 01:38:30;;;;;;;;;;;2.00;99.90;;;;;;5053224;28;19925;-36
2023/04/04 01:40:57;;;;;;;;;;;2.00;99.90;;;;;;5036049;28;19925;-36
2023/04/04 01:43:26;;;;;;;;;;;2.00;99.90;;;;;;5051728;28;19929;-36
2023/04/04 01:45:53;;;;;;;;;;;2.10;99.90;;;;;;5036380;28;20403;-36
2023/04/04 01:48:19;;;;;;;;;;;2.00;99.90;;;;;;5053720;28;19948;-36
2023/04/04 01:50:46;;;;;;;;;;;1.90;99.90;;;;;;5053801;28;19995;-36
2023/04/04 01:53:13;;;;;;;;;;;1.90;99.90;;;;;;5051304;28;20372;-36
2023/04/04 01:55:40;;;;;;;;;;;1.90;99.90;;;;;;5054048;28;19924;-36
2023/04/04 01:58:06;;;;;;;;;;;1.90;99.90;;;;;;5035429;28;19924;-36
2023/04/04 02:00:34;;;;;;;;;;;1.90;99.90;;;;;;5052361;28;19936;-36
2023/04/04 02:03:01;;;;;;;;;;;1.90;99.90;;;;;;5035062;28;20029;-36
2023/04/04 02:05:28;;;;;;;;;;;1.80;99.90;;;;;;5035670;28;19925;-36
2023/04/04 02:07:54;;;;;;;;;;;1.80;99.90;;;;;;5035823;28;20438;-36
2023/04/04 02:10:21;;;;;;;;;;;1.80;99.90;;;;;;5053442;28;19925;-36
2023/04/04 02:12:48;;;;;;;;;;;1.80;99.90;;;;;;5035777;28;19928;-35
2023/04/04 02:15:15;;;;;;;;;;;1.80;99.90;;;;;;5055392;28;20033;-35
2023/04/04 02:17:44;;;;;;;;;;;1.70;99.90;;;;;;5035831;28;19929;-35
2023/04/04 02:20:11;;;;;;;;;;;1.70;99.90;;;;;;5053258;28;20012;-35
2023/04/04 02:22:38;;;;;;;;;;;1.70;99.90;;;;;;5035969;28;19928;-35
2023/04/04 02:25:05;;;;;;;;;;;1.70;99.90;;;;;;5034071;28;19928;-36
2023/04/04 02:27:32;;;;;;;;;;;1.70;99.90;;;;;;5035135;28;19924;-36
2023/04/04 02:29:59;;;;;;;;;;;1.60;99.90;;;;;;5052450;28;19974;-44
2023/04/04 02:32:26;;;;;;;;;;;1.60;99.90;;;;;;5053561;28;19929;-35
2023/04/04 02:34:54;;;;;;;;;;;1.60;99.90;;;;;;5035071;28;19924;-36
2023/04/04 02:37:20;;;;;;;;;;;1.60;99.90;;;;;;5034029;28;19925;-36
2023/04/04 02:39:47;;;;;;;;;;;1.60;99.90;;;;;;5034856;28;20035;-35
2023/04/04 02:42:14;;;;;;;;;;;1.60;99.90;;;;;;5052159;28;19929;-36
2023/04/04 02:44:41;;;;;;;;;;;1.50;99.90;;;;;;5035474;28;20376;-35
2023/04/04 02:47:08;;;;;;;;;;;1.50;99.90;;;;;;5051803;28;19924;-35
2023/04/04 02:49:34;;;;;;;;;;;1.50;99.90;;;;;;5051769;28;19929;-35
2023/04/04 02:52:02;;;;;;;;;;;1.50;99.90;;;;;;5034716;28;20419;-36
2023/04/04 02:54:29;;;;;;;;;;;1.50;99.90;;;;;;5051717;28;20351;-36
2023/04/04 02:56:56;;;;;;;;;;;1.40;99.90;;;;;;5052819;28;19932;-36
2023/04/04 02:59:22;;;;;;;;;;;1.40;99.90;;;;;;5034351;28;19935;-36
2023/04/04 03:01:49;;;;;;;;;;;1.40;99.90;;;;;;5051274;28;19925;-36
2023/04/04 03:04:18;;;;;;;;;;;1.40;99.90;;;;;;5050300;28;19933;-36
2023/04/04 03:06:47;;;;;;;;;;;1.40;99.90;;;;;;5052296;28;19929;-36
2023/04/04 03:09:15;;;;;;;;;;;1.30;99.90;;;;;;5031968;28;19931;-36
2023/04/04 03:11:41;;;;;;;;;;;1.30;99.90;;;;;;5049204;28;19925;-36
2023/04/04 03:14:08;;;;;;;;;;;1.30;99.90;;;;;;5052445;28;20315;-36
2023/04/04 03:16:35;;;;;;;;;;;1.30;99.90;;;;;;5064550;28;19970;-35
2023/04/04 03:19:01;;;;;;;;;;;1.30;99.90;;;;;;5052838;28;19928;-36
2023/04/04 03:21:28;;;;;;;;;;;1.20;99.90;;;;;;5049388;28;19925;-35
2023/04/04 03:23:55;;;;;;;;;;;1.20;99.90;;;;;;5032822;28;19936;-36
2023/04/04 03:26:23;;;;;;;;;;;1.20;99.90;;;;;;5051953;28;20365;-36
2023/04/04 03:28:50;;;;;;;;;;;1.20;99.90;;;;;;5033843;28;19925;-36
2023/04/04 03:31:16;;;;;;;;;;;1.10;99.90;;;;;;5050199;28;19982;-35
2023/04/04 03:33:43;;;;;;;;;;;1.10;99.90;;;;;;5050058;28;20369;-35
2023/04/04 03:36:10;;;;;;;;;;;1.00;99.90;;;;;;5051101;28;20023;-36
2023/04/04 03:38:37;;;;;;;;;;;1.10;99.90;;;;;;5052836;28;20020;-36
2023/04/04 03:41:04;;;;;;;;;;;1.00;99.90;;;;;;5033837;28;19929;-35
2023/04/04 03:43:32;;;;;;;;;;;0.90;99.90;;;;;;5033213;28;19929;-35
2023/04/04 03:46:02;;;;;;;;;;;1.00;99.90;;;;;;5032287;28;20391;-36
2023/04/04 03:48:28;;;;;;;;;;;1.00;99.90;;;;;;5058291;28;20028;-36
2023/04/04 03:50:56;;;;;;;;;;;0.90;99.90;;;;;;5033424;28;19925;-37
2023/04/04 03:53:22;;;;;;;;;;;0.90;99.90;;;;;;5050935;28;19925;-36
2023/04/04 03:55:49;;;;;;;;;;;0.90;99.90;;;;;;5033803;28;20330;-36
2023/04/04 03:58:16;;;;;;;;;;;0.90;99.90;;;;;;5050981;28;20152;-37
2023/04/04 04:00:44;;;;;;;;;;;0.80;99.90;;;;;;5050948;28;19972;-36
2023/04/04 04:03:11;;;;;;;;;;;0.80;99.90;;;;;;5033859;28;19929;-36
2023/04/04 04:05:37;;;;;;;;;;;0.80;99.90;;;;;;5033365;28;20380;-37
2023/04/04 04:08:04;;;;;;;;;;;0.80;99.90;;;;;;5031417;28;20339;-35
2023/04/04 04:10:31;;;;;;;;;;;0.80;99.90;;;;;;5033178;28;20392;-36
2023/04/04 04:12:58;;;;;;;;;;;0.80;99.90;;;;;;5033353;28;19924;-37
2023/04/04 04:15:25;;;;;;;;;;;0.80;99.90;;;;;;5033319;28;20435;-35
2023/04/04 04:17:53;;;;;;;;;;;0.80;99.90;;;;;;5034548;28;19925;-36
2023/04/04 04:20:19;;;;;;;;;;;0.80;99.90;;;;;;5050608;28;19996;-36
2023/04/04 04:22:46;;;;;;;;;;;0.70;99.90;;;;;;5032660;28;20376;-35
2023/04/04 04:25:13;;;;;;;;;;;0.70;99.90;;;;;;5032796;28;20396;-35
2023/04/04 04:27:40;;;;;;;;;;;0.70;99.90;;;;;;5049924;28;19929;-35
2023/04/04 04:30:07;;;;;;;;;;;0.70;99.90;;;;;;5051281;28;19936;-36
2023/04/04 04:32:34;;;;;;;;;;;0.60;99.90;;;;;;5049172;28;20380;-35
2023/04/04 04:35:02;;;;;;;;;;;0.70;99.90;;;;;;5050430;28;19929;-35
2023/04/04 04:37:28;;;;;;;;;;;0.60;99.90;;;;;;5033154;28;19979;-35
2023/04/04 04:39:55;;;;;;;;;;;0.60;99.90;;;;;;5050816;28;19972;-35
2023/04/04 04:42:22;;;;;;;;;;;0.60;99.90;;;;;;5034193;28;19975;-35
2023/04/04 04:44:48;;;;;;;;;;;0.60;99.90;;;;;;5032310;28;19994;-36
2023/04/04 04:47:15;;;;;;;;;;;0.60;99.90;;;;;;5050059;28;19929;-36
2023/04/04 04:49:43;;;;;;;;;;;0.60;99.90;;;;;;5036674;28;19925;-36
2023/04/04 04:52:11;;;;;;;;;;;0.50;99.90;;;;;;5046187;28;19979;-36
2023/04/04 04:54:38;;;;;;;;;;;0.50;99.90;;;;;;5054664;28;19932;-36
2023/04/04 04:57:05;;;;;;;;;;;0.50;99.90;;;;;;5053326;28;19925;-35
2023/04/04 04:59:32;;;;;;;;;;;0.50;99.90;;;;;;5033339;28;20292;-36
2023/04/04 05:01:58;;;;;;;;;;;0.50;99.90;;;;;;5045852;28;20023;-36
2023/04/04 05:04:26;;;;;;;;;;;0.40;99.90;;;;;;5034393;28;19925;-36
2023/04/04 05:06:52;;;;;;;;;;;0.40;99.90;;;;;;5054433;28;19977;-36
2023/04/04 05:09:20;;;;;;;;;;;0.40;99.90;;;;;;5054286;28;19992;-36
2023/04/04 05:11:47;;;;;;;;;;;0.50;99.90;;;;;;5033342;28;19929;-36
2023/04/04 05:14:14;;;;;;;;;;;0.40;99.90;;;;;;5033428;28;19925;-36
2023/04/04 05:16:41;;;;;;;;;;;0.40;99.90;;;;;;5051615;28;20308;-36
2023/04/04 05:19:08;;;;;;;;;;;0.40;99.90;;;;;;5037009;28;19924;-36
2023/04/04 05:21:35;;;;;;;;;;;0.30;99.90;;;;;;5051216;28;19935;-36
2023/04/04 05:24:01;;;;;;;;;;;0.40;99.90;;;;;;5032903;28;19971;-36
2023/04/04 05:26:30;;;;;;;;;;;0.40;99.90;;;;;;5030052;28;20373;-36
2023/04/04 05:28:58;;;;;;;;;;;0.40;99.90;;;;;;5047229;28;20239;-35
2023/04/04 05:31:24;;;;;;;;;;;0.40;99.90;;;;;;5051677;28;19976;-35
2023/04/04 05:33:52;;;;;;;;;;;0.40;99.90;;;;;;5033409;28;19925;-35
2023/04/04 05:36:19;;;;;;;;;;;0.40;99.90;;;;;;5046823;28;20020;-36
2023/04/04 05:38:46;;;;;;;;;;;0.50;99.90;;;;;;5048651;28;19933;-36
2023/04/04 05:41:12;;;;;;;;;;;0.40;99.90;;;;;;5051608;28;20453;-36
2023/04/04 05:43:40;;;;;;;;;;;0.50;99.90;;;;;;5032009;28;19972;-36
2023/04/04 05:46:07;;;;;;;;;;;0.50;99.90;;;;;;5015451;22;20011;-36
2023/04/04 05:48:34;;;;;;;;;;;0.50;99.90;;;;;;5021133;28;20015;-36
2023/04/04 05:51:00;;;;;;;;;;;0.60;99.90;;;;;;5024726;28;19972;-36
2023/04/04 05:53:27;;;;;;;;;;;0.70;99.90;;;;;;5021305;28;19931;-36
2023/04/04 05:55:54;;;;;;;;;;;0.70;99.90;;;;;;5022974;28;19932;-36
2023/04/04 05:58:20;;;;;;;;;;;0.70;99.90;;;;;;5046955;28;19924;-36
2023/04/04 06:00:48;;;;;;;;;;;0.80;99.90;;;;;;5023640;28;19929;-36
2023/04/04 06:03:15;;;;;;;;;;;0.80;99.90;;;;;;5042738;28;19974;-36
2023/04/04 06:05:42;;;;;;;;;;;0.80;99.90;;;;;;5031476;28;19933;-36
2023/04/04 06:08:09;;;;;;;;;;;0.90;99.90;;;;;;5042767;28;20323;-37
2023/04/04 06:10:35;;;;;;;;;;;1.00;99.90;;;;;;5050258;28;20312;-36
2023/04/04 06:13:02;;;;;;;;;;;1.00;99.90;;;;;;5029854;28;20411;-37
2023/04/04 06:15:29;;;;;;;;;;;1.00;99.90;;;;;;5049863;28;19932;-35
2023/04/04 06:17:57;;;;;;;;;;;1.10;99.90;;;;;;5024532;28;19933;-36
2023/04/04 06:20:24;;;;;;;;;;;1.10;99.90;;;;;;5048006;28;19932;-36
2023/04/04 06:22:50;;;;;;;;;;;1.20;99.90;;;;;;5035216;28;19927;-35
2023/04/04 06:25:17;;;;;;;;;;;1.20;99.90;;;;;;5019372;28;19972;-35
2023/04/04 06:27:44;;;;;;;;;;;1.20;99.90;;;;;;5038313;28;20027;-35
2023/04/04 06:30:13;;;;;;;;;;;1.30;99.90;;;;;;5019969;28;19939;-35
2023/04/04 06:32:39;;;;;;;;;;;1.30;99.90;;;;;;5025911;28;19933;-35
2023/04/04 06:35:08;;;;;;;;;;;1.30;99.90;;;;;;5031984;28;19925;-36
2023/04/04 06:37:35;;;;;;;;;;;1.40;99.90;;;;;;5047681;28;20414;-36
2023/04/04 06:40:03;;;;;;;;;;;1.30;99.90;;;;;;5039187;28;19968;-36
2023/04/04 06:42:29;;;;;;;;;;;1.40;99.90;;;;;;5045436;28;19933;-35
2023/04/04 06:44:56;;;;;;;;;;;1.50;99.90;;;;;;5033320;28;19925;-35
2023/04/04 06:47:23;;;;;;;;;;;1.70;99.90;;;;;;5024708;28;19929;-36
2023/04/04 06:49:49;;;;;;;;;;;1.70;99.90;;;;;;5048717;28;19925;-35
2023/04/04 06:52:17;;;;;;;;;;;1.80;99.90;;;;;;5051652;28;19971;-36
2023/04/04 06:54:44;;;;;;;;;;;1.90;99.90;;;;;;5033923;28;19978;-36
2023/04/04 06:57:11;;;;;;;;;;;2.00;99.90;;;;;;5051258;28;19951;-35
2023/04/04 06:59:37;;;;;;;;;;;2.10;99.90;;;;;;5051424;28;19925;-35
2023/04/04 07:02:04;;;;;;;;;;;2.20;99.90;;;;;;5050191;28;19929;-36
2023/04/04 07:04:33;;;;;;;;;;;2.30;99.90;;;;;;5033718;28;19924;-36
2023/04/04 07:07:00;;;;;;;;;;;2.50;99.90;;;;;;5033515;28;19925;-36
2023/04/04 07:09:28;;;;;;;;;;;2.70;99.90;;;;;;5051197;28;19969;-36
2023/04/04 07:11:55;;;;;;;;;;;2.80;99.90;;;;;;5030809;28;19964;-36
2023/04/04 07:14:23;;;;;;;;;;;3.00;99.90;;;;;;5032705;28;19978;-36
2023/04/04 07:16:50;;;;;;;;;;;3.00;99.90;;;;;;5014010;28;20369;-36
2023/04/04 07:19:17;;;;;;;;;;;3.20;99.90;;;;;;5033980;28;19925;-36
2023/04/04 07:21:44;;;;;;;;;;;3.30;99.90;;;;;;5021873;28;19933;-35
2023/04/04 07:24:10;;;;;;;;;;;3.50;99.90;;;;;;5020216;28;20318;-35
2023/04/04 07:26:39;;;;;;;;;;;3.60;99.90;;;;;;5024454;28;20664;-35
2023/04/04 07:29:06;;;;;;;;;;;3.70;99.90;;;;;;5041871;28;19932;-35
2023/04/04 07:31:33;;;;;;;;;;;3.80;99.90;;;;;;5020351;28;19975;-36
2023/04/04 07:34:00;;;;;;;;;;;3.90;99.90;;;;;;5038848;28;19982;-36
2023/04/04 07:36:26;;;;;;;;;;;4.10;99.90;;;;;;5024978;28;19950;-36
2023/04/04 07:38:53;;;;;;;;;;;4.10;99.90;;;;;;5026893;28;19924;-35
2023/04/04 07:41:20;;;;;;;;;;;4.20;99.90;;;;;;5021770;28;20353;-34
2023/04/04 07:43:48;;;;;;;;;;;4.40;99.90;;;;;;5048951;28;19952;-35
2023/04/04 07:46:15;;;;;;;;;;;4.50;99.90;;;;;;5045247;28;20423;-35
2023/04/04 07:48:42;;;;;;;;;;;4.60;99.90;;;;;;5013817;28;19932;-35
2023/04/04 07:51:08;;;;;;;;;;;4.70;99.90;;;;;;5030596;28;19932;-35
2023/04/04 07:53:35;;;;;;;;;;;4.70;99.90;;;;;;5013746;28;19968;-35
2023/04/04 07:56:05;;;;;;;;;;;4.90;99.90;;;;;;5028519;28;20521;-36
2023/04/04 07:58:31;;;;;;;;;;;5.00;99.90;;;;;;5043482;28;19924;-35
2023/04/04 08:00:59;;;;;;;;;;;5.20;99.90;;;;;;5032920;28;19994;-36
2023/04/04 08:03:26;;;;;;;;;;;5.20;99.90;;;;;;5033669;28;19929;-36
2023/04/04 08:05:53;;;;;;;;;;;5.30;99.90;;;;;;5030587;28;19951;-35
2023/04/04 08:08:19;;;;;;;;;;;5.50;99.90;;;;;;5022663;28;20400;-35
2023/04/04 08:10:48;;;;;;;;;;;5.60;99.90;;;;;;5044688;28;20380;-35
2023/04/04 08:13:14;;;;;;;;;;;5.70;99.90;;;;;;5043708;28;20033;-36
2023/04/04 08:15:41;;;;;;;;;;;5.90;99.90;;;;;;5042823;28;19929;-35
2023/04/04 08:18:09;;;;;;;;;;;5.90;99.90;;;;;;5030809;28;19925;-36
2023/04/04 08:20:35;;;;;;;;;;;6.20;99.90;;;;;;5030468;28;19929;-36
2023/04/04 08:23:03;;;;;;;;;;;6.40;99.90;;;;;;5032567;28;19991;-36
2023/04/04 08:25:29;;;;;;;;;;;6.50;99.90;;;;;;5019754;28;19944;-35
2023/04/04 08:27:56;;;;;;;;;;;6.60;99.90;;;;;;5027563;28;19979;-36
2023/04/04 08:30:23;;;;;;;;;;;6.80;99.90;;;;;;5039492;28;19978;-35
2023/04/04 08:32:50;;;;;;;;;;;7.00;99.90;;;;;;5047439;28;19929;-35
2023/04/04 08:35:18;;;;;;;;;;;7.20;99.90;;;;;;5054447;28;20349;-36
2023/04/04 08:37:45;;;;;;;;;;;7.40;99.90;;;;;;5043064;28;20458;-36
2023/04/04 08:40:11;;;;;;;;;;;7.50;99.90;;;;;;5034241;28;20618;-35
2023/04/04 08:42:39;;;;;;;;;;;7.70;99.90;;;;;;5053477;28;19960;-36
2023/04/04 08:45:08;;;;;;;;;;;7.80;99.90;;;;;;5053629;28;19980;-36
2023/04/04 08:47:35;;;;;;;;;;;8.00;98.00;;;;;;5053519;28;20020;-36
2023/04/04 08:50:03;;;;;;;;;;;8.10;97.10;;;;;;5052093;28;20397;-36
2023/04/04 08:52:31;;;;;;;;;;;8.30;97.40;;;;;;5036157;28;19933;-35
2023/04/04 08:54:58;;;;;;;;;;;8.30;94.00;;;;;;5029204;28;19968;-36
2023/04/04 08:57:25;;;;;;;;;;;8.40;96.90;;;;;;5054037;28;19978;-36
2023/04/04 08:59:51;;;;;;;;;;;8.50;94.30;;;;;;5053989;28;19932;-36
2023/04/04 09:02:20;;;;;;;;;;;8.60;96.70;;;;;;5053679;28;20369;-36
2023/04/04 09:04:47;;;;;;;;;;;8.60;96.20;;;;;;5053473;28;19979;-36
2023/04/04 09:07:14;;;;;;;;;;;8.70;96.10;;;;;;5053260;28;19952;-35
2023/04/04 09:09:42;;;;;;;;;;;8.70;94.50;;;;;;5034750;28;20385;-35
2023/04/04 09:12:09;;;;;;;;;;;8.60;93.60;;;;;;5052676;28;19931;-35
2023/04/04 09:14:37;;;;;;;;;;;8.50;94.10;;;;;;5053445;28;19979;-37
2023/04/04 09:17:04;;;;;;;;;;;8.60;92.90;;;;;;5035874;28;20268;-36
2023/04/04 09:19:31;;;;;;;;;;;8.60;93.80;;;;;;5034315;28;20015;-35
2023/04/04 09:21:57;;;;;;;;;;;8.70;93.80;;;;;;5023204;28;19929;-35
2023/04/04 09:24:24;;;;;;;;;;;8.80;93.70;;;;;;5052470;28;20370;-36
2023/04/04 09:26:53;;;;;;;;;;;8.90;92.50;;;;;;5035192;28;19931;-35
2023/04/04 09:29:20;;;;;;;;;;;8.90;90.20;;;;;;5049084;28;19968;-35
2023/04/04 09:31:48;;;;;;;;;;;8.90;85.20;;;;;;5029389;28;20016;-34
2023/04/04 09:34:15;;;;;;;;;;;8.90;89.00;;;;;;5048037;28;19978;-34
2023/04/04 09:36:41;;;;;;;;;;;8.90;86.80;;;;;;5043813;28;19931;-35
2023/04/04 09:39:08;;;;;;;;;;;9.00;83.30;;;;;;5031220;28;19924;-35
2023/04/04 09:41:36;;;;;;;;;;;9.00;89.20;;;;;;5050728;28;19978;-34
2023/04/04 09:44:05;;;;;;;;;;;9.20;90.30;;;;;;5028653;28;20429;-35
2023/04/04 09:46:32;;;;;;;;;;;9.40;86.60;;;;;;5049894;28;19925;-36
2023/04/04 09:48:58;;;;;;;;;;;9.50;91.20;;;;;;5019844;28;19925;-36
2023/04/04 09:51:26;;;;;;;;;;;9.80;88.50;;;;;;5050675;28;19964;-36
2023/04/04 09:53:52;;;;;;;;;;;9.90;88.30;;;;;;5033885;28;20535;-35
2023/04/04 09:56:19;;;;;;;;;;;9.90;90.30;;;;;;5051172;28;20446;-36
2023/04/04 09:58:46;;;;;;;;;;;10.00;86.50;;;;;;5035175;28;20019;-36
2023/04/04 10:01:15;;;;;;;;;;;10.00;84.50;;;;;;5043671;28;19925;-37
2023/04/04 10:03:41;;;;;;;;;;;10.20;86.60;;;;;;5034223;28;20286;-36
2023/04/04 10:06:09;;;;;;;;;;;10.30;85.60;;;;;;5034861;28;19971;-36
2023/04/04 10:08:37;;;;;;;;;;;10.30;89.30;;;;;;5039425;28;19930;-37
2023/04/04 10:11:04;;;;;;;;;;;10.40;88.60;;;;;;5047121;28;20347;-35
2023/04/04 10:13:31;;;;;;;;;;;10.60;79.30;;;;;;5034150;28;19932;-36
2023/04/04 10:15:58;;;;;;;;;;;10.50;82.10;;;;;;5052295;28;20015;-36
2023/04/04 10:18:26;;;;;;;;;;;10.60;79.00;;;;;;5052211;28;20675;-35
2023/04/04 10:20:53;;;;;;;;;;;10.60;78.80;;;;;;5033321;28;19979;-35
2023/04/04 10:23:19;;;;;;;;;;;10.70;76.80;;;;;;5048694;28;19932;-35
2023/04/04 10:25:48;;;;;;;;;;;10.70;75.40;;;;;;5045971;28;19925;-35
2023/04/04 10:28:15;;;;;;;;;;;10.80;77.40;;;;;;5043912;28;19925;-36
2023/04/04 10:30:43;;;;;;;;;;;10.90;78.00;;;;;;5042027;28;19983;-35
2023/04/04 10:33:12;;;;;;;;;;;11.10;77.30;;;;;;5025463;28;19925;-36
2023/04/04 10:35:40;;;;;;;;;;;10.90;72.10;;;;;;5045063;28;19925;-35
2023/04/04 10:38:07;;;;;;;;;;;10.90;75.90;;;;;;5029693;28;20025;-35
2023/04/04 10:40:36;;;;;;;;;;;10.90;78.10;;;;;;5029820;28;19975;-35
2023/04/04 10:43:03;;;;;;;;;;;10.90;75.40;;;;;;5046771;28;19933;-36
2023/04/04 10:45:30;;;;;;;;;;;10.80;71.10;;;;;;5039755;28;19975;-36
2023/04/04 10:47:57;;;;;;;;;;;10.80;74.40;;;;;;5014001;28;20015;-36
2023/04/04 10:50:24;;;;;;;;;;;10.90;74.90;;;;;;5028770;28;20458;-37
2023/04/04 10:52:52;;;;;;;;;;;10.90;73.80;;;;;;5040981;28;19979;-35
2023/04/04 10:55:18;;;;;;;;;;;11.10;75.90;;;;;;5043356;28;20320;-35
2023/04/04 10:57:46;;;;;;;;;;;11.20;71.20;;;;;;5026769;28;20381;-36
2023/04/04 11:00:13;;;;;;;;;;;11.30;71.60;;;;;;5050764;28;19932;-37
2023/04/04 11:02:43;;;;;;;;;;;11.30;68.30;;;;;;5049324;28;19991;-36
2023/04/04 11:05:10;;;;;;;;;;;11.30;67.80;;;;;;5044115;28;19928;-37
2023/04/04 11:07:39;;;;;;;;;;;11.30;68.10;;;;;;5041691;28;19924;-36
2023/04/04 11:10:08;;;;;;;;;;;11.30;67.40;;;;;;5033021;28;19964;-37
2023/04/04 11:12:37;;;;;;;;;;;11.30;67.40;;;;;;5033734;28;19932;-36
2023/04/04 11:15:09;;;;;;;;;;;11.40;70.00;;;;;;5040159;28;19946;-37
2023/04/04 11:17:57;;;;;;;;;;;11.50;67.80;;;;;;5038822;28;20032;-35
2023/04/04 11:20:24;;;;;;;;;;;11.60;69.10;;;;;;5035816;28;20203;-35
2023/04/04 11:22:51;;;;;;;;;;;11.80;71.50;;;;;;5032611;28;19936;-35
2023/04/04 11:25:38;;;;;;;;;;;11.90;65.30;;;;;;5033529;28;19925;-35
2023/04/04 11:28:06;;;;;;;8.23;2.92;;;11.80;67.00;;;;;;5011643;28;20508;-36
2023/04/04 11:30:43;;;;;;;20.27;4.03;;;12.30;66.80;;;;;;5013109;28;20119;-36
2023/04/04 11:33:11;;;;;;;4.32;2.55;;;12.20;66.90;;;;;;5016070;28;20049;-36
2023/04/04 11:35:41;;;;;;;7.75;2.58;;;12.10;67.70;;;;;;5029333;28;20044;-36
2023/04/04 11:38:15;;;;;;;8.40;2.80;;;11.90;67.10;;;;;;5031036;28;20103;-37
2023/04/04 11:40:53;;;;;;;7.35;2.22;;;11.70;66.50;;;;;;5030364;28;20103;-36
2023/04/04 11:43:20;;;;;;;6.60;3.10;;;11.70;65.80;;;;;;5026474;28;20619;-36
2023/04/04 11:45:47;;;;;;;7.55;2.88;;;11.60;67.00;;;;;;5029199;28;20141;-35
2023/04/04 11:48:15;;;;;;;5.70;2.58;;;11.70;68.00;;;;;;5029023;28;20123;-36
2023/04/04 11:50:43;;;;;;;6.97;2.58;;;11.90;67.90;;;;;;5028563;28;20140;-35
2023/04/04 11:53:10;;;;;;;7.68;2.63;;;12.00;66.10;;;;;;5012345;28;20157;-37
2023/04/04 11:55:41;;;;;;;6.00;2.65;;;12.10;65.20;;;;;;5018025;28;20049;-35
2023/04/04 11:58:10;;;;;;;5.50;2.53;;;12.20;66.80;;;;;;5022235;28;20351;-40
2023/04/04 12:00:38;;;;;;;5.35;2.88;;;12.30;68.10;;;;;;5027123;28;20092;-35
2023/04/04 12:03:06;;;;;;;7.00;3.13;;;12.50;67.00;;;;;;5023858;28;20060;-35
2023/04/04 12:05:33;;;;;;;8.13;2.90;;;12.60;66.20;;;;;;5030416;28;20045;-35
2023/04/04 12:08:01;;;;;;;8.02;2.75;;;12.80;66.60;;;;;;5021399;28;20045;-37
2023/04/04 12:10:30;;;;;;;8.18;2.80;;;12.90;65.30;;;;;;5019902;28;20054;-36
2023/04/04 12:12:58;;;;;;;7.15;2.58;;;12.90;63.80;;;;;;5024602;28;20049;-37
2023/04/04 12:15:27;;;;;;;10.25;3.10;;;12.80;63.90;;;;;;5029175;28;20045;-36
2023/04/04 12:17:55;;;;;;;5.97;2.65;;;12.70;61.70;;;;;;5030264;28;20085;-35
2023/04/04 12:20:23;;;;;;;6.18;2.70;;;12.50;62.00;;;;;;5030119;28;20072;-36
2023/04/04 12:22:50;;;;;;;4.43;2.30;;;12.50;62.60;;;;;;5028082;28;20408;-36
2023/04/04 12:25:18;;;;;;;8.73;2.90;;;12.60;63.10;;;;;;5023903;28;20122;-37
2023/04/04 12:27:45;;;;;;;8.13;2.70;;;12.70;63.20;;;;;;5023317;28;20058;-39
2023/04/04 12:30:14;;;;;;;6.60;3.03;;;12.70;62.20;;;;;;5017569;28;20050;-40
2023/04/04 12:32:43;;;;;;;5.60;2.60;;;12.80;63.10;;;;;;5019741;28;20050;-36
2023/04/04 12:35:10;;;;;;;5.15;2.58;;;12.90;61.90;;;;;;5027752;28;20049;-36
2023/04/04 12:37:37;;;;;;;7.18;2.60;;;12.80;62.90;;;;;;5025380;28;20053;-35
2023/04/04 12:40:06;;;;;;;6.80;2.55;;;12.90;62.80;;;;;;5029118;28;20052;-36
2023/04/04 12:42:33;;;;;;;6.65;2.65;;;12.90;62.30;;;;;;5029243;28;20486;-36
2023/04/04 12:45:02;;;;;;;6.88;2.53;;;12.90;64.70;;;;;;5031184;28;20049;-35
2023/04/04 12:47:31;;;;;;;7.30;2.30;;;13.00;64.50;;;;;;5043349;28;20106;-36
2023/04/04 12:49:59;;;;;;;7.00;3.03;;;13.10;65.00;;;;;;5044174;28;20064;-37
2023/04/04 12:52:30;;;;;;;5.25;2.70;;;13.10;64.60;;;;;;5043185;28;20128;-35
2023/04/04 12:54:59;;;;;;;5.35;2.90;;;13.20;63.90;;;;;;5030408;28;20052;-36
2023/04/04 12:57:26;;;;;;;6.85;3.05;;;13.20;63.30;;;;;;5043027;28;20134;-36
2023/04/04 12:59:54;;;;;;;5.72;2.78;;;13.20;62.70;;;;;;5039452;28;20058;-36
2023/04/04 13:02:21;;;;;;;4.85;2.88;;;13.20;59.80;;;;;;5043227;28;20057;-36
2023/04/04 13:04:52;;;;;;;5.22;2.58;;;13.00;59.90;;;;;;5027617;28;20488;-36
2023/04/04 13:07:25;;;;;;;5.93;2.70;;;13.00;60.80;;;;;;5044457;28;20052;-35
2023/04/04 13:09:52;;;;;;;6.53;2.60;;;13.10;61.50;;;;;;5046309;28;20045;-35
2023/04/04 13:12:19;;;;;;;5.32;2.50;;;13.10;60.50;;;;;;5033873;28;20079;-35
2023/04/04 13:14:59;;;;;;;4.07;2.63;;;13.10;58.10;;;;;;5034957;28;20515;-35
2023/04/04 13:17:26;;;;;;;7.20;2.75;;;13.00;58.60;;;;;;5050488;28;20041;-35
2023/04/04 13:19:53;;;;;;;4.40;2.25;;;12.90;58.20;;;;;;5027234;28;20088;-36
2023/04/04 13:22:20;;;;;;;8.73;3.08;;;13.00;59.70;;;;;;5031931;28;20053;-35
2023/04/04 13:24:48;;;;;;;4.32;2.40;;;13.10;57.70;;;;;;5048032;28;20057;-36
2023/04/04 13:27:15;;;;;;;6.03;3.25;;;13.10;59.70;;;;;;5031277;28;20106;-36
2023/04/04 13:29:42;;;;;;;5.88;2.90;;;13.20;60.40;;;;;;5033521;28;20130;-36
2023/04/04 13:32:09;;;;;;;7.93;3.03;;;13.30;60.50;;;;;;5032538;28;20049;-36
2023/04/04 13:34:35;;;;;;;5.88;2.47;;;13.40;61.00;;;;;;5051683;28;20092;-35
2023/04/04 13:37:02;;;;;;;5.40;2.63;;;13.60;61.00;;;;;;5045921;28;20055;-36
2023/04/04 13:39:29;;;;;;;5.32;2.80;;;13.60;60.70;;;;;;5049488;28;20473;-36
2023/04/04 13:41:57;;;;;;;5.72;2.55;;;13.70;61.30;;;;;;5053794;28;20048;-36
2023/04/04 13:44:24;;;;;;;5.85;2.97;;;13.90;60.90;;;;;;5034495;28;20045;-37
2023/04/04 13:46:51;;;;;;;7.60;3.38;;;14.00;60.50;;;;;;5048148;28;20502;-35
2023/04/04 13:49:18;;;;;;;8.90;3.25;;;13.90;58.40;;;;;;5040116;28;20045;-35
2023/04/04 13:51:44;;;;;;;5.97;2.97;;;13.90;58.30;;;;;;5033930;28;20126;-35
2023/04/04 13:54:11;;;;;;;4.90;2.70;;;13.60;58.60;;;;;;5050661;28;20099;-35
2023/04/04 13:56:38;;;;;;;7.25;3.15;;;13.60;59.90;;;;;;5051637;28;20057;-36
2023/04/04 13:59:06;;;;;;;7.75;3.33;;;13.80;57.20;;;;;;5051185;28;20045;-39
2023/04/04 14:01:33;;;;;;;5.10;2.80;;;13.70;56.50;;;;;;5046533;28;20060;-38
2023/04/04 14:04:00;;;;;;;5.90;2.72;;;13.70;57.90;;;;;;5046685;28;20509;-36
2023/04/04 14:06:27;;;;;;;5.35;3.10;;;13.60;57.00;;;;;;5048204;28;20489;-35